sensor_id;sensor_type;location;lat;lon;timestamp;pressure;altitude;pressure_sealevel;temperature;humidity
44148;BME280;29810;55.848;37.368;2023-04-07T00:02:16;99980.81;;;2.92;54.02
44148;BME280;29810;55.848;37.368;2023-04-07T00:05:34;99980.81;;;2.92;53.99
44148;BME280;29810;55.848;37.368;2023-04-07T00:08:42;99981.72;;;2.97;53.79
44148;BME280;29810;55.848;37.368;2023-04-07T00:11:51;99983.44;;;3.02;53.55
44148;BME280;29810;55.848;37.368;2023-04-07T00:15:00;99983.34;;;2.86;53.81
44148;BME280;29810;55.848;37.368;2023-04-07T00:18:12;99979.13;;;2.94;53.71
44148;BME280;29810;55.848;37.368;2023-04-07T00:21:18;99980.75;;;2.83;54.27
44148;BME280;29810;55.848;37.368;2023-04-07T00:24:27;99980.75;;;2.80;54.20
44148;BME280;29810;55.848;37.368;2023-04-07T00:27:34;99978.97;;;2.74;54.54
44148;BME280;29810;55.848;37.368;2023-04-07T00:30:44;99980.75;;;2.78;54.37
44148;BME280;29810;55.848;37.368;2023-04-07T00:33:47;99976.34;;;2.67;54.91
44148;BME280;29810;55.848;37.368;2023-04-07T00:36:55;99978.91;;;2.63;55.03
44148;BME280;29810;55.848;37.368;2023-04-07T00:40:01;99977.16;;;2.58;55.14
44148;BME280;29810;55.848;37.368;2023-04-07T00:43:11;99981.34;;;2.46;55.53
44148;BME280;29810;55.848;37.368;2023-04-07T00:46:17;99967.56;;;2.43;55.68
44148;BME280;29810;55.848;37.368;2023-04-07T00:49:25;99977.94;;;2.47;55.33
44148;BME280;29810;55.848;37.368;2023-04-07T00:52:31;99979.59;;;2.41;55.65
44148;BME280;29810;55.848;37.368;2023-04-07T00:55:41;99976.91;;;2.30;56.10
44148;BME280;29810;55.848;37.368;2023-04-07T00:58:45;99985.50;;;2.29;56.22
44148;BME280;29810;55.848;37.368;2023-04-07T01:11:27;99978.56;;;2.23;56.08
44148;BME280;29810;55.848;37.368;2023-04-07T01:14:40;99987.94;;;2.18;56.28
44148;BME280;29810;55.848;37.368;2023-04-07T01:17:48;99983.59;;;2.09;56.72
44148;BME280;29810;55.848;37.368;2023-04-07T01:20:58;99983.47;;;1.98;57.06
44148;BME280;29810;55.848;37.368;2023-04-07T01:30:19;100000.44;;;1.81;57.56
44148;BME280;29810;55.848;37.368;2023-04-07T01:33:28;100000.44;;;1.84;57.33
44148;BME280;29810;55.848;37.368;2023-04-07T01:36:34;99999.50;;;1.73;57.87
44148;BME280;29810;55.848;37.368;2023-04-07T01:39:43;99991.72;;;1.71;58.00
44148;BME280;29810;55.848;37.368;2023-04-07T01:42:48;100000.22;;;1.62;58.21
44148;BME280;29810;55.848;37.368;2023-04-07T01:45:56;99997.59;;;1.58;58.38
44148;BME280;29810;55.848;37.368;2023-04-07T01:49:01;99994.81;;;1.42;58.95
44148;BME280;29810;55.848;37.368;2023-04-07T01:52:10;100003.41;;;1.41;59.14
44148;BME280;29810;55.848;37.368;2023-04-07T01:55:14;99986.97;;;1.31;59.51
44148;BME280;29810;55.848;37.368;2023-04-07T01:58:23;99997.22;;;1.28;59.55
44148;BME280;29810;55.848;37.368;2023-04-07T02:01:25;99996.34;;;1.28;59.51
44148;BME280;29810;55.848;37.368;2023-04-07T02:04:36;99994.69;;;1.31;59.39
44148;BME280;29810;55.848;37.368;2023-04-07T02:07:44;100000.66;;;1.30;59.31
44148;BME280;29810;55.848;37.368;2023-04-07T02:10:51;100003.31;;;1.37;59.00
44148;BME280;29810;55.848;37.368;2023-04-07T02:13:59;100004.16;;;1.37;58.89
44148;BME280;29810;55.848;37.368;2023-04-07T02:17:27;99996.44;;;1.36;58.86
44148;BME280;29810;55.848;37.368;2023-04-07T02:20:33;99999.00;;;1.32;59.09
44148;BME280;29810;55.848;37.368;2023-04-07T02:23:45;99994.66;;;1.30;59.02
44148;BME280;29810;55.848;37.368;2023-04-07T02:26:49;99999.72;;;1.22;59.52
44148;BME280;29810;55.848;37.368;2023-04-07T02:29:56;100004.03;;;1.25;59.36
44148;BME280;29810;55.848;37.368;2023-04-07T02:33:01;100010.88;;;1.24;59.48
44148;BME280;29810;55.848;37.368;2023-04-07T02:36:08;100001.38;;;1.19;59.55
44148;BME280;29810;55.848;37.368;2023-04-07T02:39:13;100003.00;;;1.13;59.84
44148;BME280;29810;55.848;37.368;2023-04-07T02:42:23;100009.84;;;1.13;59.90
44148;BME280;29810;55.848;37.368;2023-04-07T02:45:31;100001.38;;;1.19;59.69
44148;BME280;29810;55.848;37.368;2023-04-07T02:48:38;100008.09;;;1.10;59.90
44148;BME280;29810;55.848;37.368;2023-04-07T02:51:44;100002.19;;;1.16;60.01
44148;BME280;29810;55.848;37.368;2023-04-07T02:54:51;100009.97;;;1.22;59.79
44148;BME280;29810;55.848;37.368;2023-04-07T02:57:57;100007.50;;;1.28;59.45
44148;BME280;29810;55.848;37.368;2023-04-07T03:01:05;100009.25;;;1.29;59.48
44148;BME280;29810;55.848;37.368;2023-04-07T03:04:10;100012.75;;;1.38;59.26
44148;BME280;29810;55.848;37.368;2023-04-07T03:07:18;100013.69;;;1.44;59.12
44148;BME280;29810;55.848;37.368;2023-04-07T03:10:23;100015.34;;;1.39;59.22
44148;BME280;29810;55.848;37.368;2023-04-07T03:13:31;100022.38;;;1.53;58.83
44148;BME280;29810;55.848;37.368;2023-04-07T03:16:35;100013.00;;;1.58;58.64
44148;BME280;29810;55.848;37.368;2023-04-07T03:19:43;100023.16;;;1.47;58.73
44148;BME280;29810;55.848;37.368;2023-04-07T03:22:51;100017.13;;;1.45;59.12
44148;BME280;29810;55.848;37.368;2023-04-07T03:26:01;100015.56;;;1.55;58.78
44148;BME280;29810;55.848;37.368;2023-04-07T03:29:06;100016.47;;;1.60;58.75
44148;BME280;29810;55.848;37.368;2023-04-07T03:32:14;100018.94;;;1.52;58.87
44148;BME280;29810;55.848;37.368;2023-04-07T03:35:19;100023.25;;;1.55;59.03
44148;BME280;29810;55.848;37.368;2023-04-07T03:38:30;100030.06;;;1.51;58.97
44148;BME280;29810;55.848;37.368;2023-04-07T03:41:33;100028.44;;;1.59;58.84
44148;BME280;29810;55.848;37.368;2023-04-07T03:44:42;100032.72;;;1.59;58.74
44148;BME280;29810;55.848;37.368;2023-04-07T03:47:49;100037.81;;;1.54;59.13
44148;BME280;29810;55.848;37.368;2023-04-07T03:50:59;100043.84;;;1.56;58.94
44148;BME280;29810;55.848;37.368;2023-04-07T03:54:07;100031.00;;;1.59;59.13
44148;BME280;29810;55.848;37.368;2023-04-07T03:57:15;100035.22;;;1.53;59.13
44148;BME280;29810;55.848;37.368;2023-04-07T04:00:20;100041.34;;;1.61;59.01
44148;BME280;29810;55.848;37.368;2023-04-07T04:03:30;100042.22;;;1.64;58.66
44148;BME280;29810;55.848;37.368;2023-04-07T04:06:36;100041.56;;;1.81;58.56
44148;BME280;29810;55.848;37.368;2023-04-07T04:09:47;100043.34;;;1.87;58.26
44148;BME280;29810;55.848;37.368;2023-04-07T04:12:52;100035.88;;;2.07;57.88
44148;BME280;29810;55.848;37.368;2023-04-07T04:16:00;100041.16;;;2.21;57.51
44148;BME280;29810;55.848;37.368;2023-04-07T04:19:03;100044.84;;;2.46;57.01
44148;BME280;29810;55.848;37.368;2023-04-07T04:22:12;100045.78;;;2.56;56.65
44148;BME280;29810;55.848;37.368;2023-04-07T04:25:26;100051.75;;;2.50;56.32
44148;BME280;29810;55.848;37.368;2023-04-07T04:28:35;100055.16;;;2.46;56.26
44148;BME280;29810;55.848;37.368;2023-04-07T04:31:43;100045.84;;;2.65;56.30
44148;BME280;29810;55.848;37.368;2023-04-07T04:34:52;100045.84;;;2.65;55.71
44148;BME280;29810;55.848;37.368;2023-04-07T04:37:59;100055.56;;;2.98;55.64
44148;BME280;29810;55.848;37.368;2023-04-07T04:41:09;100052.28;;;3.18;55.16
44148;BME280;29810;55.848;37.368;2023-04-07T04:44:14;100048.91;;;3.28;54.14
44148;BME280;29810;55.848;37.368;2023-04-07T04:47:34;100054.97;;;3.34;54.27
44148;BME280;29810;55.848;37.368;2023-04-07T04:50:47;100055.38;;;4.74;53.27
44148;BME280;29810;55.848;37.368;2023-04-07T04:54:02;100041.72;;;8.90;43.46
44148;BME280;29810;55.848;37.368;2023-04-07T04:57:17;100027.69;;;12.29;34.67
44148;BME280;29810;55.848;37.368;2023-04-07T05:00:25;100021.38;;;13.65;33.35
44148;BME280;29810;55.848;37.368;2023-04-07T05:03:31;100024.25;;;13.81;32.73
44148;BME280;29810;55.848;37.368;2023-04-07T05:06:37;100026.06;;;14.71;31.29
44148;BME280;29810;55.848;37.368;2023-04-07T05:09:43;100030.59;;;13.75;30.52
44148;BME280;29810;55.848;37.368;2023-04-07T05:12:54;100038.53;;;10.10;38.22
44148;BME280;29810;55.848;37.368;2023-04-07T05:15:56;100057.00;;;7.89;42.85
44148;BME280;29810;55.848;37.368;2023-04-07T05:19:04;100054.63;;;6.82;44.12
44148;BME280;29810;55.848;37.368;2023-04-07T05:22:10;100054.13;;;6.32;45.03
44148;BME280;29810;55.848;37.368;2023-04-07T05:25:18;100056.88;;;5.99;46.31
44148;BME280;29810;55.848;37.368;2023-04-07T05:28:24;100060.44;;;5.58;46.60
44148;BME280;29810;55.848;37.368;2023-04-07T05:31:33;100067.28;;;5.77;46.96
44148;BME280;29810;55.848;37.368;2023-04-07T05:34:40;100065.56;;;5.73;46.40
44148;BME280;29810;55.848;37.368;2023-04-07T05:37:50;100059.53;;;5.74;46.21
44148;BME280;29810;55.848;37.368;2023-04-07T05:40:53;100068.13;;;5.81;47.16
44148;BME280;29810;55.848;37.368;2023-04-07T05:44:03;100072.56;;;5.42;46.31
44148;BME280;29810;55.848;37.368;2023-04-07T05:47:08;100069.97;;;5.36;47.25
44148;BME280;29810;55.848;37.368;2023-04-07T05:50:19;100071.72;;;5.30;46.79
44148;BME280;29810;55.848;37.368;2023-04-07T05:53:25;100076.03;;;5.44;46.93
44148;BME280;29810;55.848;37.368;2023-04-07T05:56:32;100079.50;;;5.34;46.59
44148;BME280;29810;55.848;37.368;2023-04-07T05:59:37;100075.19;;;5.29;46.69
44148;BME280;29810;55.848;37.368;2023-04-07T06:02:48;100079.47;;;5.38;46.79
44148;BME280;29810;55.848;37.368;2023-04-07T06:05:56;100073.38;;;5.62;46.87
44148;BME280;29810;55.848;37.368;2023-04-07T06:09:02;100078.47;;;5.87;46.71
44148;BME280;29810;55.848;37.368;2023-04-07T06:12:14;100070.81;;;5.61;45.97
44148;BME280;29810;55.848;37.368;2023-04-07T06:15:18;100079.38;;;5.75;47.06
44148;BME280;29810;55.848;37.368;2023-04-07T06:18:28;100075.03;;;5.90;46.54
44148;BME280;29810;55.848;37.368;2023-04-07T06:21:32;100084.50;;;5.91;45.88
44148;BME280;29810;55.848;37.368;2023-04-07T06:24:41;100073.28;;;6.03;45.95
44148;BME280;29810;55.848;37.368;2023-04-07T06:27:46;100077.53;;;6.13;46.37
44148;BME280;29810;55.848;37.368;2023-04-07T06:30:58;100070.56;;;6.23;45.49
44148;BME280;29810;55.848;37.368;2023-04-07T06:34:06;100081.84;;;6.17;45.47
44148;BME280;29810;55.848;37.368;2023-04-07T06:37:17;100081.75;;;6.29;45.37
44148;BME280;29810;55.848;37.368;2023-04-07T06:40:23;100085.19;;;6.33;45.13
44148;BME280;29810;55.848;37.368;2023-04-07T06:43:31;100076.59;;;6.28;44.73
44148;BME280;29810;55.848;37.368;2023-04-07T06:46:35;100086.09;;;6.26;45.12
44148;BME280;29810;55.848;37.368;2023-04-07T06:49:43;100085.13;;;6.44;45.57
44148;BME280;29810;55.848;37.368;2023-04-07T06:52:48;100085.88;;;6.63;45.46
44148;BME280;29810;55.848;37.368;2023-04-07T06:56:29;100089.22;;;6.77;44.54
44148;BME280;29810;55.848;37.368;2023-04-07T06:59:28;100082.25;;;6.86;45.04
44148;BME280;29810;55.848;37.368;2023-04-07T07:02:38;100074.31;;;7.06;44.70
44148;BME280;29810;55.848;37.368;2023-04-07T07:05:44;100084.59;;;7.15;44.32
44148;BME280;29810;55.848;37.368;2023-04-07T07:08:53;100089.75;;;7.18;43.51
44148;BME280;29810;55.848;37.368;2023-04-07T07:12:00;100079.47;;;7.09;43.76
44148;BME280;29810;55.848;37.368;2023-04-07T07:15:08;100085.47;;;7.16;43.06
44148;BME280;29810;55.848;37.368;2023-04-07T07:18:15;100086.28;;;7.21;42.65
44148;BME280;29810;55.848;37.368;2023-04-07T07:21:25;100080.87;;;7.44;43.59
44148;BME280;29810;55.848;37.368;2023-04-07T07:24:31;100083.38;;;7.53;42.67
44148;BME280;29810;55.848;37.368;2023-04-07T07:27:39;100089.31;;;7.65;42.24
44148;BME280;29810;55.848;37.368;2023-04-07T07:30:47;100081.41;;;7.75;43.27
44148;BME280;29810;55.848;37.368;2023-04-07T07:33:54;100078.72;;;7.80;42.65
44148;BME280;29810;55.848;37.368;2023-04-07T07:37:01;100089.00;;;7.92;41.89
44148;BME280;29810;55.848;37.368;2023-04-07T07:40:09;100093.81;;;7.45;41.42
44148;BME280;29810;55.848;37.368;2023-04-07T07:43:13;100092.00;;;7.57;42.00
44148;BME280;29810;55.848;37.368;2023-04-07T07:46:27;100087.53;;;7.67;41.06
44148;BME280;29810;55.848;37.368;2023-04-07T07:49:32;100092.63;;;7.76;41.68
44148;BME280;29810;55.848;37.368;2023-04-07T07:52:41;100090.88;;;7.79;41.25
44148;BME280;29810;55.848;37.368;2023-04-07T07:56:12;100090.84;;;7.81;40.36
44148;BME280;29810;55.848;37.368;2023-04-07T07:59:40;100100.09;;;8.05;41.02
44148;BME280;29810;55.848;37.368;2023-04-07T08:02:45;100094.63;;;8.25;40.66
44148;BME280;29810;55.848;37.368;2023-04-07T08:05:55;100069.50;;;8.27;40.45
44148;BME280;29810;55.848;37.368;2023-04-07T08:09:01;100093.72;;;8.28;39.50
44148;BME280;29810;55.848;37.368;2023-04-07T08:12:12;100075.41;;;8.37;39.99
44148;BME280;29810;55.848;37.368;2023-04-07T08:15:17;100078.88;;;8.36;39.38
44148;BME280;29810;55.848;37.368;2023-04-07T08:18:26;100075.63;;;8.23;39.09
44148;BME280;29810;55.848;37.368;2023-04-07T08:21:35;100080.91;;;8.16;38.71
44148;BME280;29810;55.848;37.368;2023-04-07T08:24:43;100068.50;;;8.35;39.01
44148;BME280;29810;55.848;37.368;2023-04-07T08:27:50;100086.69;;;8.35;39.18
44148;BME280;29810;55.848;37.368;2023-04-07T08:31:22;100071.00;;;8.47;39.01
44148;BME280;29810;55.848;37.368;2023-04-07T08:34:31;100065.50;;;8.66;38.85
44148;BME280;29810;55.848;37.368;2023-04-07T08:37:40;100072.13;;;8.85;38.26
44148;BME280;29810;55.848;37.368;2023-04-07T08:40:45;100065.78;;;9.03;38.10
44148;BME280;29810;55.848;37.368;2023-04-07T08:43:56;100060.19;;;9.25;38.25
44148;BME280;29810;55.848;37.368;2023-04-07T08:47:03;100070.53;;;9.30;37.70
44148;BME280;29810;55.848;37.368;2023-04-07T08:50:14;100066.91;;;9.38;36.64
44148;BME280;29810;55.848;37.368;2023-04-07T08:53:22;100065.81;;;9.50;36.46
44148;BME280;29810;55.848;37.368;2023-04-07T08:56:33;100063.38;;;9.39;36.90
44148;BME280;29810;55.848;37.368;2023-04-07T08:59:38;100071.19;;;9.41;36.49
44148;BME280;29810;55.848;37.368;2023-04-07T09:02:51;100064.19;;;9.43;35.80
44148;BME280;29810;55.848;37.368;2023-04-07T09:05:56;100054.06;;;9.27;35.61
44148;BME280;29810;55.848;37.368;2023-04-07T09:09:06;100061.56;;;9.44;35.78
44148;BME280;29810;55.848;37.368;2023-04-07T09:12:12;100063.22;;;9.50;35.47
44148;BME280;29810;55.848;37.368;2023-04-07T09:15:21;100053.78;;;9.43;35.53
44148;BME280;29810;55.848;37.368;2023-04-07T09:18:29;100057.06;;;9.54;35.77
44148;BME280;29810;55.848;37.368;2023-04-07T09:21:49;100061.53;;;9.46;35.16
44148;BME280;29810;55.848;37.368;2023-04-07T09:25:07;100047.63;;;9.47;35.23
44148;BME280;29810;55.848;37.368;2023-04-07T09:28:17;100044.34;;;9.81;34.59
44148;BME280;29810;55.848;37.368;2023-04-07T09:31:57;100042.41;;;9.92;35.08
44148;BME280;29810;55.848;37.368;2023-04-07T09:34:57;100063.16;;;9.97;35.32
44148;BME280;29810;55.848;37.368;2023-04-07T09:38:04;100056.06;;;10.04;34.25
44148;BME280;29810;55.848;37.368;2023-04-07T09:41:15;100051.78;;;10.00;34.28
44148;BME280;29810;55.848;37.368;2023-04-07T09:44:21;100046.38;;;9.67;33.89
44148;BME280;29810;55.848;37.368;2023-04-07T09:47:33;100043.69;;;9.71;33.95
44148;BME280;29810;55.848;37.368;2023-04-07T09:50:41;100049.53;;;9.84;34.06
44148;BME280;29810;55.848;37.368;2023-04-07T09:53:51;100031.25;;;9.86;34.29
44148;BME280;29810;55.848;37.368;2023-04-07T09:56:56;100053.78;;;9.88;34.22
44148;BME280;29810;55.848;37.368;2023-04-07T10:00:06;100037.19;;;9.92;34.65
44148;BME280;29810;55.848;37.368;2023-04-07T10:03:14;100040.94;;;9.79;34.50
44148;BME280;29810;55.848;37.368;2023-04-07T10:06:27;100036.34;;;9.92;34.43
44148;BME280;29810;55.848;37.368;2023-04-07T10:09:33;100043.91;;;10.03;34.03
44148;BME280;29810;55.848;37.368;2023-04-07T10:12:42;100050.31;;;9.86;33.86
44148;BME280;29810;55.848;37.368;2023-04-07T10:15:51;100051.84;;;9.97;34.13
44148;BME280;29810;55.848;37.368;2023-04-07T10:19:00;100047.53;;;9.95;33.61
44148;BME280;29810;55.848;37.368;2023-04-07T10:22:04;100066.78;;;9.88;33.14
44148;BME280;29810;55.848;37.368;2023-04-07T10:25:18;100048.72;;;9.81;34.06
44148;BME280;29810;55.848;37.368;2023-04-07T10:28:27;100050.00;;;9.59;33.16
44148;BME280;29810;55.848;37.368;2023-04-07T10:31:37;100045.41;;;9.72;34.28
44148;BME280;29810;55.848;37.368;2023-04-07T10:48:16;100047.53;;;10.38;34.35
44148;BME280;29810;55.848;37.368;2023-04-07T10:51:21;100041.34;;;10.42;34.27
44148;BME280;29810;55.848;37.368;2023-04-07T10:54:28;100045.72;;;10.40;32.72
44148;BME280;29810;55.848;37.368;2023-04-07T10:57:39;100063.87;;;10.44;33.15
44148;BME280;29810;55.848;37.368;2023-04-07T11:04:14;100056.59;;;10.59;32.64
44148;BME280;29810;55.848;37.368;2023-04-07T11:07:44;100060.97;;;10.57;32.79
44148;BME280;29810;55.848;37.368;2023-04-07T11:10:56;100050.25;;;10.32;32.65
44148;BME280;29810;55.848;37.368;2023-04-07T11:14:00;100056.81;;;10.07;31.98
44148;BME280;29810;55.848;37.368;2023-04-07T11:17:13;100050.69;;;10.10;33.27
44148;BME280;29810;55.848;37.368;2023-04-07T11:20:20;100049.31;;;10.36;33.03
44148;BME280;29810;55.848;37.368;2023-04-07T11:23:36;100043.44;;;10.24;32.46
44148;BME280;29810;55.848;37.368;2023-04-07T11:26:44;100053.25;;;10.13;32.35
44148;BME280;29810;55.848;37.368;2023-04-07T11:29:55;100031.91;;;9.95;32.55
44148;BME280;29810;55.848;37.368;2023-04-07T11:33:01;100037.53;;;10.16;31.79
44148;BME280;29810;55.848;37.368;2023-04-07T11:36:11;100049.38;;;9.90;31.71
44148;BME280;29810;55.848;37.368;2023-04-07T11:39:18;100037.81;;;10.04;32.71
44148;BME280;29810;55.848;37.368;2023-04-07T11:45:38;100035.22;;;10.44;32.19
44148;BME280;29810;55.848;37.368;2023-04-07T11:48:48;100029.06;;;10.47;32.15
44148;BME280;29810;55.848;37.368;2023-04-07T11:55:06;100032.63;;;10.04;31.58
44148;BME280;29810;55.848;37.368;2023-04-07T11:58:19;100030.09;;;9.99;31.96
44148;BME280;29810;55.848;37.368;2023-04-07T12:01:37;100029.47;;;10.28;32.38
44148;BME280;29810;55.848;37.368;2023-04-07T12:04:56;100037.69;;;10.49;31.62
44148;BME280;29810;55.848;37.368;2023-04-07T12:08:01;100022.78;;;10.56;30.97
44148;BME280;29810;55.848;37.368;2023-04-07T12:11:11;100021.53;;;10.71;31.71
44148;BME280;29810;55.848;37.368;2023-04-07T12:14:22;100014.69;;;10.67;31.78
44148;BME280;29810;55.848;37.368;2023-04-07T12:17:33;100016.41;;;10.68;32.10
44148;BME280;29810;55.848;37.368;2023-04-07T12:20:39;100021.69;;;10.65;31.50
44148;BME280;29810;55.848;37.368;2023-04-07T12:23:49;100026.53;;;10.80;31.87
44148;BME280;29810;55.848;37.368;2023-04-07T12:26:53;100022.16;;;10.81;31.40
44148;BME280;29810;55.848;37.368;2023-04-07T12:30:04;100027.37;;;10.82;31.63
44148;BME280;29810;55.848;37.368;2023-04-07T12:33:10;100024.09;;;10.72;31.01
44148;BME280;29810;55.848;37.368;2023-04-07T12:36:17;100024.03;;;10.75;31.32
44148;BME280;29810;55.848;37.368;2023-04-07T12:39:23;100024.81;;;10.79;31.34
44148;BME280;29810;55.848;37.368;2023-04-07T12:42:31;100020.69;;;10.70;31.30
44148;BME280;29810;55.848;37.368;2023-04-07T12:45:38;100022.38;;;10.71;31.56
44148;BME280;29810;55.848;37.368;2023-04-07T12:48:51;100027.72;;;10.67;31.34
44148;BME280;29810;55.848;37.368;2023-04-07T12:51:57;100023.25;;;10.72;31.42
44148;BME280;29810;55.848;37.368;2023-04-07T12:55:08;100019.44;;;10.85;31.74
44148;BME280;29810;55.848;37.368;2023-04-07T12:58:11;100029.56;;;10.98;31.00
44148;BME280;29810;55.848;37.368;2023-04-07T13:01:21;100029.25;;;10.75;30.46
44148;BME280;29810;55.848;37.368;2023-04-07T13:04:29;100024.97;;;10.73;31.25
44148;BME280;29810;55.848;37.368;2023-04-07T13:07:38;100010.00;;;10.81;31.22
44148;BME280;29810;55.848;37.368;2023-04-07T13:10:45;100009.81;;;10.89;30.88
44148;BME280;29810;55.848;37.368;2023-04-07T13:13:53;100010.44;;;10.97;30.85
44148;BME280;29810;55.848;37.368;2023-04-07T13:16:57;100013.44;;;11.16;31.49
44148;BME280;29810;55.848;37.368;2023-04-07T13:20:05;100014.44;;;11.12;31.49
44148;BME280;29810;55.848;37.368;2023-04-07T13:23:11;100014.91;;;11.26;31.02
44148;BME280;29810;55.848;37.368;2023-04-07T13:26:22;100014.72;;;11.33;30.65
44148;BME280;29810;55.848;37.368;2023-04-07T13:29:29;100022.28;;;11.43;31.10
44148;BME280;29810;55.848;37.368;2023-04-07T13:32:43;100010.22;;;11.38;31.19
44148;BME280;29810;55.848;37.368;2023-04-07T13:35:52;100016.44;;;11.34;31.54
44148;BME280;29810;55.848;37.368;2023-04-07T13:39:04;100011.31;;;11.31;31.58
44148;BME280;29810;55.848;37.368;2023-04-07T13:42:12;100014.66;;;11.36;31.19
44148;BME280;29810;55.848;37.368;2023-04-07T13:45:25;100015.66;;;11.30;31.17
44148;BME280;29810;55.848;37.368;2023-04-07T13:48:31;100006.56;;;11.14;29.93
44148;BME280;29810;55.848;37.368;2023-04-07T13:51:40;100005.47;;;11.21;31.63
44148;BME280;29810;55.848;37.368;2023-04-07T13:54:46;100009.69;;;11.26;30.44
44148;BME280;29810;55.848;37.368;2023-04-07T13:57:54;100013.00;;;11.33;31.18
44148;BME280;29810;55.848;37.368;2023-04-07T14:01:00;100014.72;;;11.33;31.22
44148;BME280;29810;55.848;37.368;2023-04-07T14:04:06;100022.12;;;11.17;31.00
44148;BME280;29810;55.848;37.368;2023-04-07T14:07:13;100018.97;;;11.04;30.23
44148;BME280;29810;55.848;37.368;2023-04-07T14:10:24;100020.84;;;10.99;31.05
44148;BME280;29810;55.848;37.368;2023-04-07T14:13:31;100021.88;;;10.93;30.54
44148;BME280;29810;55.848;37.368;2023-04-07T14:16:41;100016.09;;;10.80;30.50
44148;BME280;29810;55.848;37.368;2023-04-07T14:19:48;100015.12;;;10.84;31.26
44148;BME280;29810;55.848;37.368;2023-04-07T14:22:57;100018.59;;;10.85;31.59
44148;BME280;29810;55.848;37.368;2023-04-07T14:26:08;100020.63;;;10.73;30.81
44148;BME280;29810;55.848;37.368;2023-04-07T14:29:17;100022.12;;;10.46;30.75
44148;BME280;29810;55.848;37.368;2023-04-07T14:32:21;100018.69;;;10.44;31.37
44148;BME280;29810;55.848;37.368;2023-04-07T14:35:35;100021.03;;;10.56;31.53
44148;BME280;29810;55.848;37.368;2023-04-07T14:38:43;100015.62;;;10.64;31.87
44148;BME280;29810;55.848;37.368;2023-04-07T14:41:54;100028.81;;;10.58;31.91
44148;BME280;29810;55.848;37.368;2023-04-07T14:45:00;100025.41;;;10.56;31.62
44148;BME280;29810;55.848;37.368;2023-04-07T14:48:11;100012.53;;;10.48;31.53
44148;BME280;29810;55.848;37.368;2023-04-07T14:51:20;100017.06;;;10.40;31.65
44148;BME280;29810;55.848;37.368;2023-04-07T14:54:32;100022.53;;;10.27;31.92
44148;BME280;29810;55.848;37.368;2023-04-07T14:57:37;100020.72;;;10.30;32.04
44148;BME280;29810;55.848;37.368;2023-04-07T15:00:45;100017.59;;;10.15;32.35
44148;BME280;29810;55.848;37.368;2023-04-07T15:03:52;100015.94;;;10.11;32.53
44148;BME280;29810;55.848;37.368;2023-04-07T15:07:03;100019.41;;;10.11;32.79
44148;BME280;29810;55.848;37.368;2023-04-07T15:10:08;100017.06;;;9.99;32.76
44148;BME280;29810;55.848;37.368;2023-04-07T15:13:18;100019.72;;;9.98;32.90
44148;BME280;29810;55.848;37.368;2023-04-07T15:16:22;100022.41;;;9.93;33.07
44148;BME280;29810;55.848;37.368;2023-04-07T15:19:33;100020.63;;;9.95;33.11
44148;BME280;29810;55.848;37.368;2023-04-07T15:22:38;100026.06;;;9.84;33.24
44148;BME280;29810;55.848;37.368;2023-04-07T15:25:49;100026.25;;;9.76;33.49
44148;BME280;29810;55.848;37.368;2023-04-07T15:28:57;100031.59;;;9.69;33.81
44148;BME280;29810;55.848;37.368;2023-04-07T15:32:06;100026.56;;;9.59;34.12
44148;BME280;29810;55.848;37.368;2023-04-07T15:35:13;100026.81;;;9.47;34.46
44148;BME280;29810;55.848;37.368;2023-04-07T15:38:22;100026.94;;;9.39;34.71
44148;BME280;29810;55.848;37.368;2023-04-07T15:41:32;100028.78;;;9.34;34.82
44148;BME280;29810;55.848;37.368;2023-04-07T15:44:39;100037.50;;;9.32;35.01
44148;BME280;29810;55.848;37.368;2023-04-07T15:47:46;100032.41;;;9.27;35.25
44148;BME280;29810;55.848;37.368;2023-04-07T15:50:56;100037.78;;;9.18;35.39
44148;BME280;29810;55.848;37.368;2023-04-07T15:54:01;100041.22;;;9.18;35.32
44148;BME280;29810;55.848;37.368;2023-04-07T15:57:09;100038.84;;;9.06;35.35
44148;BME280;29810;55.848;37.368;2023-04-07T16:00:15;100046.72;;;9.01;35.34
44148;BME280;29810;55.848;37.368;2023-04-07T16:03:28;100040.72;;;8.98;35.52
44148;BME280;29810;55.848;37.368;2023-04-07T16:06:33;100053.78;;;8.94;35.60
44148;BME280;29810;55.848;37.368;2023-04-07T16:09:42;100055.66;;;8.86;35.72
44148;BME280;29810;55.848;37.368;2023-04-07T16:12:49;100058.41;;;8.77;36.06
44148;BME280;29810;55.848;37.368;2023-04-07T16:16:01;100063.72;;;8.68;35.85
44148;BME280;29810;55.848;37.368;2023-04-07T16:19:06;100067.16;;;8.70;36.01
44148;BME280;29810;55.848;37.368;2023-04-07T16:22:16;100064.78;;;8.57;36.03
44148;BME280;29810;55.848;37.368;2023-04-07T16:25:22;100070.87;;;8.55;36.11
44148;BME280;29810;55.848;37.368;2023-04-07T16:28:32;100067.50;;;8.47;36.41
44148;BME280;29810;55.848;37.368;2023-04-07T16:31:38;100086.59;;;8.45;36.40
44148;BME280;29810;55.848;37.368;2023-04-07T16:34:48;100084.84;;;8.44;36.19
44148;BME280;29810;55.848;37.368;2023-04-07T16:37:54;100088.31;;;8.43;36.25
44148;BME280;29810;55.848;37.368;2023-04-07T16:41:05;100091.06;;;8.31;36.55
44148;BME280;29810;55.848;37.368;2023-04-07T16:44:14;100092.94;;;8.21;36.83
44148;BME280;29810;55.848;37.368;2023-04-07T16:47:24;100092.16;;;8.16;36.97
44148;BME280;29810;55.848;37.368;2023-04-07T16:50:31;100102.59;;;8.10;37.05
44148;BME280;29810;55.848;37.368;2023-04-07T16:53:41;100100.94;;;8.06;37.16
44148;BME280;29810;55.848;37.368;2023-04-07T16:56:47;100098.37;;;8.03;37.34
44148;BME280;29810;55.848;37.368;2023-04-07T16:59:57;100099.34;;;7.94;37.66
44148;BME280;29810;55.848;37.368;2023-04-07T17:03:04;100107.12;;;7.94;37.66